createdAt,value
2019-04-05T00:04:26.534Z,6.43
2019-04-05T00:09:27.920Z,5.27
2019-04-05T00:14:29.285Z,7.40
2019-04-05T00:19:30.721Z,6.67
2019-04-05T00:24:32.191Z,7.37
2019-04-05T00:29:34.322Z,5.87
2019-04-05T00:34:35.723Z,7.50
2019-04-05T00:39:37.181Z,7.93
2019-04-05T00:44:38.593Z,6.80
2019-04-05T00:49:40.063Z,6.60
2019-04-05T00:54:41.490Z,7.93
2019-04-05T00:59:42.955Z,8.57
2019-04-05T01:04:51.676Z,7.63
2019-04-05T01:09:53.085Z,8.50
2019-04-05T01:14:54.513Z,8.43
2019-04-05T01:19:55.868Z,8.53
2019-04-05T01:24:57.260Z,8.43
2019-04-05T01:29:58.700Z,7.60
2019-04-05T01:35:00.089Z,8.23
2019-04-05T01:40:01.503Z,9.03
2019-04-05T01:45:05.371Z,7.93
2019-04-05T01:50:06.788Z,8.97
2019-04-05T01:55:09.005Z,6.83
2019-04-05T02:00:10.433Z,7.90
2019-04-05T02:05:11.877Z,7.67
2019-04-05T02:10:14.433Z,8.43
2019-04-05T02:15:30.751Z,7.77
2019-04-05T02:20:32.161Z,8.00
2019-04-05T02:25:40.850Z,8.47
2019-04-05T02:30:42.213Z,9.27
2019-04-05T02:35:43.702Z,9.57
2019-04-05T02:40:45.157Z,8.43
2019-04-05T02:45:46.588Z,9.57
2019-04-05T02:50:49.866Z,7.93
2019-04-05T02:56:02.567Z,10.50
2019-04-05T03:01:00.432Z,9.50
2019-04-05T03:06:02.216Z,10.67
2019-04-05T03:11:03.822Z,9.83
2019-04-05T03:16:05.395Z,10.90
2019-04-05T03:21:08.210Z,10.97
2019-04-05T03:26:10.266Z,10.30
2019-04-05T03:31:11.754Z,10.10
2019-04-05T03:36:13.222Z,11.30
2019-04-05T03:41:14.622Z,11.83
2019-04-05T03:46:16.059Z,10.37
2019-04-05T03:51:17.563Z,12.83
2019-04-05T03:56:19.007Z,13.43
2019-04-05T04:01:20.483Z,13.03
2019-04-05T04:06:21.901Z,12.57
2019-04-05T04:11:23.361Z,11.47
2019-04-05T04:16:24.779Z,12.40
2019-04-05T04:21:30.888Z,14.20
2019-04-05T04:26:32.316Z,11.43
2019-04-05T04:31:34.621Z,13.57
2019-04-05T04:36:36.101Z,13.47
2019-04-05T04:41:37.604Z,11.70
2019-04-05T04:46:39.732Z,13.27
2019-04-05T04:51:41.259Z,13.93
2019-04-05T04:56:42.771Z,15.47
2019-04-05T05:01:44.156Z,14.33
2019-04-05T05:06:45.722Z,14.27
2019-04-05T05:11:47.268Z,15.47
2019-04-05T05:16:48.742Z,16.30
2019-04-05T05:21:50.173Z,17.93
2019-04-05T05:26:52.371Z,19.27
2019-04-05T05:31:54.584Z,15.87
2019-04-05T05:36:56.025Z,19.50
2019-04-05T05:41:58.185Z,17.37
2019-04-05T05:46:59.681Z,21.93
2019-04-05T05:52:01.907Z,18.33
2019-04-05T05:57:03.282Z,16.33
2019-04-05T06:02:07.160Z,19.53
2019-04-05T06:07:06.362Z,19.73
2019-04-05T06:12:07.801Z,18.37
2019-04-05T06:17:09.155Z,21.70
2019-04-05T06:22:10.786Z,20.57
2019-04-05T06:27:13.337Z,18.77
2019-04-05T06:32:16.492Z,19.27
2019-04-05T06:37:18.885Z,19.87
2019-04-05T06:42:20.263Z,20.23
2019-04-05T06:47:21.665Z,20.80
2019-04-05T06:52:23.799Z,22.67
2019-04-05T06:57:25.216Z,19.37
2019-04-05T07:02:27.389Z,21.00
2019-04-05T07:07:29.537Z,22.10
2019-04-05T07:12:30.932Z,19.60
2019-04-05T07:17:32.286Z,19.40
2019-04-05T07:22:39.146Z,20.17
2019-04-05T07:27:35.902Z,23.70
2019-04-05T07:32:37.339Z,20.50
2019-04-05T07:37:39.509Z,18.00
2019-04-05T07:42:41.634Z,21.60
2019-04-05T07:47:43.001Z,26.23
2019-04-05T07:52:44.383Z,25.03
2019-04-05T07:57:45.866Z,18.47
2019-04-05T08:02:47.317Z,20.73
2019-04-05T08:07:48.771Z,19.40
2019-04-05T08:12:50.152Z,21.13
2019-04-05T08:17:51.548Z,20.83
2019-04-05T08:22:52.931Z,19.13
2019-04-05T08:27:54.353Z,20.03
2019-04-05T08:32:55.720Z,20.13
2019-04-05T08:37:57.082Z,16.77
2019-04-05T08:42:58.468Z,17.37
2019-04-05T08:47:59.864Z,16.97
2019-04-05T08:53:01.288Z,16.60
2019-04-05T08:58:06.836Z,15.53
2019-04-05T09:03:11.913Z,15.57
2019-04-05T09:08:12.307Z,15.93
2019-04-05T09:13:13.637Z,18.13
2019-04-05T09:18:15.029Z,17.87
2019-04-05T09:23:16.410Z,15.53
2019-04-05T09:28:17.824Z,16.63
2019-04-05T09:33:19.918Z,16.87
2019-04-05T09:38:21.355Z,14.67
2019-04-05T09:43:22.735Z,15.27
2019-04-05T09:48:24.191Z,15.70
2019-04-05T09:53:26.302Z,16.03
2019-04-05T09:58:27.715Z,12.93
2019-04-05T10:03:29.108Z,16.23
2019-04-05T10:08:31.235Z,13.67
2019-04-05T10:13:32.653Z,14.00
2019-04-05T10:18:33.953Z,11.67
2019-04-05T10:23:35.350Z,11.47
2019-04-05T10:28:36.787Z,11.57
2019-04-05T10:33:38.173Z,10.27
2019-04-05T10:38:39.605Z,12.33
2019-04-05T10:43:40.917Z,11.87
2019-04-05T10:48:42.372Z,13.50
2019-04-05T10:53:43.764Z,15.40
2019-04-05T10:58:45.154Z,11.07
2019-04-05T11:03:47.277Z,14.00
2019-04-05T11:08:48.671Z,11.63
2019-04-05T11:13:50.086Z,13.93
2019-04-05T11:18:51.521Z,14.77
2019-04-05T11:23:55.652Z,13.07
2019-04-05T11:28:55.098Z,13.50
2019-04-05T11:33:56.484Z,10.37
2019-04-05T11:38:57.889Z,12.73
2019-04-05T11:44:00.722Z,12.70
2019-04-05T11:49:03.245Z,12.93
2019-04-05T11:54:02.176Z,16.47
2019-04-05T11:59:03.574Z,15.40
2019-04-05T12:04:05.024Z,14.70
2019-04-05T12:09:06.429Z,15.00
2019-04-05T12:14:07.824Z,12.13
2019-04-05T12:19:09.185Z,14.30
2019-04-05T12:24:10.657Z,16.60
2019-04-05T12:29:12.012Z,14.00
2019-04-05T12:34:14.177Z,13.57
2019-04-05T12:39:15.574Z,16.40
2019-04-05T12:44:16.960Z,15.73
2019-04-05T12:49:18.359Z,14.20
2019-04-05T12:54:19.724Z,14.07
2019-04-05T12:59:21.104Z,14.10
2019-04-05T13:04:22.417Z,14.57
2019-04-05T13:09:24.690Z,15.30
2019-04-05T13:14:26.599Z,13.83
2019-04-05T13:19:28.482Z,12.97
2019-04-05T13:24:28.032Z,10.80
2019-04-05T13:29:29.401Z,9.67
2019-04-05T13:34:30.773Z,10.47
2019-04-05T13:39:32.287Z,11.93
2019-04-05T13:44:33.635Z,9.60
2019-04-05T13:49:35.012Z,11.23
2019-04-05T13:54:36.403Z,15.60
2019-04-05T13:59:37.752Z,17.60
2019-04-05T14:04:39.114Z,15.50
2019-04-05T14:09:40.728Z,15.43
2019-04-05T14:14:42.175Z,14.83
2019-04-05T14:19:43.338Z,14.97
2019-04-05T14:24:44.783Z,16.03
2019-04-05T14:29:47.620Z,15.07
2019-04-05T14:34:47.554Z,18.03
2019-04-05T14:39:48.981Z,18.33
2019-04-05T14:44:50.291Z,16.97
2019-04-05T14:49:51.611Z,16.50
2019-04-05T14:54:52.920Z,15.13
2019-04-05T14:59:54.250Z,13.30
2019-04-05T15:04:55.593Z,13.70
2019-04-05T15:09:56.987Z,17.00
2019-04-05T15:14:58.374Z,13.57
2019-04-05T15:19:59.783Z,14.70
2019-04-05T15:25:01.182Z,13.47
2019-04-05T15:30:02.534Z,14.13
2019-04-05T15:35:04.736Z,15.93
2019-04-05T15:40:06.148Z,15.30
2019-04-05T15:45:08.267Z,14.70
2019-04-05T15:50:09.652Z,13.97
2019-04-05T15:55:11.042Z,14.13
2019-04-05T16:00:13.361Z,16.27
2019-04-05T16:05:14.929Z,14.03
2019-04-05T16:10:17.200Z,14.90
2019-04-05T16:15:20.550Z,17.40
2019-04-05T16:20:22.086Z,17.17
2019-04-05T16:25:24.340Z,18.10
2019-04-05T16:30:25.827Z,17.23
2019-04-05T16:35:28.042Z,12.70
2019-04-05T16:40:31.338Z,18.93
2019-04-05T16:45:30.916Z,15.80
2019-04-05T16:50:32.320Z,15.53
2019-04-05T16:55:33.814Z,20.17
2019-04-05T17:00:35.186Z,21.27
2019-04-05T17:05:37.546Z,19.37
2019-04-05T17:10:50.360Z,20.63
2019-04-05T17:16:02.690Z,21.90
2019-04-05T17:21:14.378Z,22.60
2019-04-05T17:26:15.767Z,22.53
2019-04-05T17:31:17.132Z,21.87
2019-04-05T17:36:18.521Z,22.43
2019-04-05T17:41:25.381Z,22.20
2019-04-05T17:46:29.310Z,25.27
2019-04-05T17:51:32.481Z,17.27
2019-04-05T17:56:33.835Z,26.17
2019-04-05T18:01:35.213Z,19.93
2019-04-05T18:06:36.602Z,22.13
2019-04-05T18:11:38.000Z,25.00
2019-04-05T18:16:39.337Z,23.43
2019-04-05T18:21:41.489Z,23.77
2019-04-05T18:26:42.933Z,24.53
2019-04-05T18:31:44.374Z,29.10
2019-04-05T18:36:45.788Z,24.03
2019-04-05T18:41:47.200Z,23.60
2019-04-05T18:46:52.623Z,29.47
2019-04-05T18:51:55.056Z,26.70
2019-04-05T18:56:57.421Z,28.70
2019-04-05T19:02:01.005Z,28.57
2019-04-05T19:07:04.898Z,28.73
2019-04-05T19:12:07.329Z,30.10
2019-04-05T19:17:23.158Z,26.23
2019-04-05T19:22:19.794Z,26.17
2019-04-05T19:27:42.346Z,31.50
2019-04-05T19:53:11.771Z,27.83
2019-04-05T19:58:17.000Z,28.73
2019-04-05T20:03:19.910Z,29.33
2019-04-05T20:08:22.930Z,26.67
2019-04-05T20:13:25.821Z,27.40
2019-04-05T20:18:27.274Z,29.07
2019-04-05T20:23:30.568Z,26.93
2019-04-05T20:28:33.303Z,27.53
2019-04-05T20:33:38.107Z,25.77
2019-04-05T20:38:42.029Z,25.73
2019-04-05T20:43:46.360Z,27.07
2019-04-05T20:48:51.768Z,28.17
2019-04-05T20:53:56.457Z,29.73
2019-04-05T20:58:58.549Z,28.73
2019-04-05T21:04:01.892Z,26.53
2019-04-05T21:09:04.540Z,27.13
2019-04-05T21:14:10.998Z,28.27
2019-04-05T21:19:14.033Z,26.13
2019-04-05T21:24:35.721Z,31.57
2019-04-05T21:29:27.473Z,25.67
2019-04-05T21:34:28.799Z,25.37
2019-04-05T21:39:30.162Z,23.87
2019-04-05T21:44:31.546Z,25.63
2019-04-05T21:49:32.911Z,24.20
2019-04-05T21:54:34.233Z,25.63
2019-04-05T21:59:35.604Z,26.00
2019-04-05T22:04:37.057Z,32.00
2019-04-05T22:09:39.186Z,26.47
2019-04-05T22:14:40.607Z,28.80
2019-04-05T22:19:42.777Z,28.60
2019-04-05T22:24:44.180Z,27.03
2019-04-05T22:29:45.547Z,26.93
2019-04-05T22:34:46.930Z,26.73
2019-04-05T22:39:48.301Z,31.07
2019-04-05T22:44:49.701Z,26.03
2019-04-05T22:49:51.105Z,29.13
2019-04-05T22:54:52.432Z,26.13
2019-04-05T22:59:53.822Z,24.67
2019-04-05T23:04:55.124Z,28.13
2019-04-05T23:09:56.465Z,26.77
2019-04-05T23:14:57.831Z,25.33
2019-04-05T23:19:59.166Z,25.20
2019-04-05T23:25:02.357Z,26.80
2019-04-05T23:30:04.716Z,29.57
2019-04-05T23:35:07.229Z,25.20
2019-04-05T23:40:08.645Z,29.37
2019-04-05T23:45:10.089Z,25.53
2019-04-05T23:50:12.255Z,28.23
2019-04-05T23:55:13.635Z,24.90
